Time;durP1;ratioP1;P1;durP2;ratioP2;P2;SDS_P1;SDS_P2;PMS_P1;PMS_P2;Temp;Humidity;BMP_temperature;BMP_pressure;BME280_temperature;BME280_humidity;BME280_pressure;Samples;Min_cycle;Max_cycle;Signal;HPM_P1;HPM_P2
2023/01/13 00:00:49;;;;;;;;;;;;;;;17.77;68.88;99781.05;2372281;74;51413;-75
2023/01/13 00:03:51;;;;;;;;;;;;;;;17.79;68.88;99782.20;2349409;75;51464;-75
2023/01/13 00:06:52;;;;;;;;;;;;;;;17.79;68.93;99779.52;2375507;74;50118;-75
2023/01/13 00:09:54;;;;;;;;;;;;;;;17.80;68.90;99767.81;2330690;74;51620;-74
2023/01/13 00:12:56;;;;;;;;;;;;;;;17.78;68.96;99763.16;2292377;77;51409;-75
2023/01/13 00:15:59;;;;;;;;;;;;;;;17.73;69.21;99771.78;2336927;75;50229;-75
2023/01/13 00:19:00;;;;;;;;;;;;;;;17.74;69.27;99774.77;2347090;74;51413;-75
2023/01/13 00:22:02;;;;;;;;;;;;;;;17.71;69.46;99773.83;2370056;75;51494;-75
2023/01/13 00:25:05;;;;;;;;;;;;;;;17.70;69.27;99774.02;2369890;74;51470;-75
2023/01/13 00:28:08;;;;;;;;;;;;;;;17.74;69.17;99778.78;2374474;74;50324;-75
2023/01/13 00:31:12;;;;;;;;;;;;;;;17.74;69.15;99776.09;2347085;73;51790;-75
2023/01/13 00:34:13;;;;;;;;;;;;;;;17.74;69.19;99774.77;2371853;74;50309;-75
2023/01/13 00:37:15;;;;;;;;;;;;;;;17.73;69.20;99769.62;2355352;74;50220;-75
2023/01/13 00:40:16;;;;;;;;;;;;;;;17.72;69.30;99775.47;2368898;74;51551;-75
2023/01/13 00:43:24;;;;;;;;;;;;;;;17.71;69.38;99763.64;2340163;75;52315;-75
2023/01/13 00:46:25;;;;;;;;;;;;;;;17.71;69.47;99768.48;2355625;74;50283;-75
2023/01/13 00:49:27;;;;;;;;;;;;;;;17.71;69.75;99764.98;2348077;75;50692;-75
2023/01/13 00:52:28;;;;;;;;;;;;;;;17.72;69.83;99761.27;2361237;73;50610;-75
2023/01/13 00:55:31;;;;;;;;;;;;;;;17.72;69.89;99770.11;2347056;75;52470;-75
2023/01/13 00:58:33;;;;;;;;;;;;;;;17.72;69.94;99766.63;2370268;75;50301;-75
2023/01/13 01:01:35;;;;;;;;;;;;;;;17.70;69.75;99767.32;2375461;73;51479;-75
2023/01/13 01:04:36;;;;;;;;;;;;;;;17.73;69.57;99776.31;2364934;75;51585;-75
2023/01/13 01:07:38;;;;;;;;;;;;;;;17.75;69.56;99767.55;2309921;75;50813;-75
2023/01/13 01:10:39;;;;;;;;;;;;;;;17.74;69.61;99767.25;2294883;77;51469;-75
2023/01/13 01:13:41;;;;;;;;;;;;;;;17.74;69.66;99771.27;2321788;75;51354;-74
2023/01/13 01:16:43;;;;;;;;;;;;;;;17.74;69.60;99765.91;2333456;75;51234;-74
2023/01/13 01:19:44;;;;;;;;;;;;;;;17.75;69.57;99775.58;2308678;76;51199;-74
2023/01/13 01:22:46;;;;;;;;;;;;;;;17.72;69.50;99774.13;2330191;74;51455;-75
2023/01/13 01:25:47;;;;;;;;;;;;;;;17.72;69.54;99780.81;2332614;76;51560;-74
2023/01/13 01:28:49;;;;;;;;;;;;;;;17.74;69.60;99772.09;2365914;75;50675;-74
2023/01/13 01:31:50;;;;;;;;;;;;;;;17.74;69.57;99770.75;2348385;75;51692;-75
2023/01/13 01:34:52;;;;;;;;;;;;;;;17.73;69.42;99769.62;2362938;75;51558;-74
2023/01/13 01:37:54;;;;;;;;;;;;;;;17.70;69.47;99768.66;2367814;74;50267;-74
2023/01/13 01:40:55;;;;;;;;;;;;;;;17.69;69.50;99765.16;2340042;74;50596;-75
2023/01/13 01:44:05;;;;;;;;;;;;;;;17.70;69.57;99761.48;2309829;76;51651;-74
2023/01/13 01:47:04;;;;;;;;;;;;;;;17.72;69.72;99751.91;2336355;74;22500;-74
2023/01/13 01:50:05;;;;;;;;;;;;;;;17.72;69.66;99758.08;2322242;74;50349;-74
2023/01/13 01:53:09;;;;;;;;;;;;;;;17.73;69.55;99753.58;2292673;77;51545;-75
2023/01/13 01:56:10;;;;;;;;;;;;;;;17.75;69.56;99747.48;2313578;74;52348;-75
2023/01/13 01:59:12;;;;;;;;;;;;;;;17.75;69.50;99740.80;2332355;75;51652;-75
2023/01/13 02:02:13;;;;;;;;;;;;;;;17.76;69.50;99738.45;2331820;76;51489;-75
2023/01/13 02:05:15;;;;;;;;;;;;;;;17.71;69.48;99735.03;2346318;74;51415;-75
2023/01/13 02:08:17;;;;;;;;;;;;;;;17.70;69.57;99740.57;2319227;75;52511;-74
2023/01/13 02:14:48;;;;;;;;;;;;;;;17.71;69.72;99732.88;2339099;75;22553;-75
2023/01/13 02:18:08;;;;;;;;;;;;;;;17.79;69.48;99739.39;2334193;75;51468;-75
2023/01/13 02:21:11;;;;;;;;;;;;;;;17.76;69.66;99731.77;2308465;76;52407;-75
2023/01/13 02:27:45;;;;;;;;;;;;;;;17.76;69.68;99727.75;2334467;75;24331;-75
2023/01/13 02:34:12;;;;;;;;;;;;;;;17.75;69.58;99726.08;2372506;73;22510;-75
2023/01/13 02:37:14;;;;;;;;;;;;;;;17.76;69.55;99721.06;2370980;74;51508;-75
2023/01/13 02:40:30;;;;;;;;;;;;;;;17.70;69.64;99721.36;2309344;76;51218;-75
2023/01/13 02:47:00;;;;;;;;;;;;;;;17.69;69.77;99717.53;2332431;76;23313;-75
2023/01/13 02:50:02;;;;;;;;;;;;;;;17.71;69.84;99718.16;2334601;74;50763;-75
2023/01/13 02:53:17;;;;;;;;;;;;;;;17.70;69.96;99719.16;2331761;75;50697;-75
2023/01/13 02:56:19;;;;;;;;;;;;;;;17.72;69.82;99717.13;2347296;74;50257;-74
2023/01/13 02:59:21;;;;;;;;;;;;;;;17.70;69.61;99724.52;2344513;74;50182;-76
2023/01/13 03:02:22;;;;;;;;;;;;;;;17.70;69.65;99714.66;2372170;75;51413;-74
2023/01/13 03:05:25;;;;;;;;;;;;;;;17.70;69.69;99721.84;2354491;75;49932;-74
2023/01/13 03:08:28;;;;;;;;;;;;;;;17.69;69.73;99717.53;2343383;73;50624;-74
2023/01/13 03:11:31;;;;;;;;;;;;;;;17.69;69.69;99713.52;2328048;75;50334;-76
2023/01/13 03:14:35;;;;;;;;;;;;;;;17.67;69.71;99712.36;2332182;73;51496;-74
2023/01/13 03:17:41;;;;;;;;;;;;;;;17.69;69.67;99711.66;2331968;75;50345;-74
2023/01/13 03:20:44;;;;;;;;;;;;;;;17.71;69.79;99706.13;2334607;75;51470;-75
2023/01/13 03:23:50;;;;;;;;;;;;;;;17.72;69.75;99699.73;2331827;75;50188;-75
2023/01/13 03:26:59;;;;;;;;;;;;;;;17.70;69.61;99689.73;2331960;76;51528;-75
2023/01/13 03:30:02;;;;;;;;;;;;;;;17.69;69.85;99693.45;2334083;75;51452;-75
2023/01/13 03:33:04;;;;;;;;;;;;;;;17.70;69.96;99703.11;2331940;76;51469;-75
2023/01/13 03:36:07;;;;;;;;;;;;;;;17.70;70.07;99705.79;2337438;73;52403;-75
2023/01/13 03:39:10;;;;;;;;;;;;;;;17.72;70.00;99705.08;2346592;74;50310;-75
2023/01/13 03:42:13;;;;;;;;;;;;;;;17.72;69.88;99699.73;2367400;74;51370;-75
2023/01/13 03:45:16;;;;;;;;;;;;;;;17.70;69.83;99704.45;2371977;74;51514;-74
2023/01/13 03:48:17;;;;;;;;;;;;;;;17.72;69.78;99709.09;2347249;75;50159;-76
2023/01/13 03:51:19;;;;;;;;;;;;;;;17.71;69.83;99710.13;2372338;74;50639;-75
2023/01/13 03:54:21;;;;;;;;;;;;;;;17.72;69.80;99704.56;2372140;75;51389;-74
2023/01/13 03:57:24;;;;;;;;;;;;;;;17.72;69.84;99711.77;2372318;74;51574;-74
2023/01/13 04:00:26;;;;;;;;;;;;;;;17.74;69.81;99709.73;2372288;75;50718;-74
2023/01/13 04:03:32;;;;;;;;;;;;;;;17.75;69.69;99716.72;2342220;75;51488;-73
2023/01/13 04:06:45;;;;;;;;;;;;;;;17.73;69.79;99702.73;2343425;74;50284;-75
2023/01/13 04:09:48;;;;;;;;;;;;;;;17.74;69.96;99695.02;2297647;75;51448;-74
2023/01/13 04:13:00;;;;;;;;;;;;;;;17.73;69.99;99691.52;2325203;75;51257;-75
2023/01/13 04:16:02;;;;;;;;;;;;;;;17.71;70.22;99694.90;2341674;75;51522;-75
2023/01/13 04:19:03;;;;;;;;;;;;;;;17.70;70.19;99690.59;2339970;75;51480;-74
2023/01/13 04:22:05;;;;;;;;;;;;;;;17.74;70.12;99697.69;2371980;75;51635;-75
2023/01/13 04:25:07;;;;;;;;;;;;;;;17.75;69.96;99685.95;2332406;75;52347;-74
2023/01/13 04:28:09;;;;;;;;;;;;;;;17.76;69.89;99693.78;2333856;75;50323;-74
2023/01/13 04:31:11;;;;;;;;;;;;;;;17.76;69.89;99690.29;2332086;76;51456;-75
2023/01/13 04:34:12;;;;;;;;;;;;;;;17.74;69.92;99694.49;2331746;75;52349;-74
2023/01/13 04:37:14;;;;;;;;;;;;;;;17.74;70.00;99698.51;2338122;74;52338;-74
2023/01/13 04:40:16;;;;;;;;;;;;;;;17.75;70.02;99699.33;2395718;74;50309;-75
2023/01/13 04:43:17;;;;;;;;;;;;;;;17.76;69.91;99703.67;2395556;74;51545;-76
2023/01/13 04:46:19;;;;;;;;;;;;;;;17.77;69.94;99699.95;2330811;73;51543;-75
2023/01/13 04:49:20;;;;;;;;;;;;;;;17.75;69.96;99706.86;2294866;76;52438;-74
2023/01/13 04:52:22;;;;;;;;;;;;;;;17.76;69.91;99709.02;2292503;77;51385;-76
2023/01/13 04:55:24;;;;;;;;;;;;;;;17.77;69.84;99707.47;2320953;75;51465;-74
2023/01/13 04:58:25;;;;;;;;;;;;;;;17.75;69.86;99713.55;2293116;76;51401;-75
2023/01/13 05:01:27;;;;;;;;;;;;;;;17.76;69.89;99713.86;2311604;75;51332;-75
2023/01/13 05:04:28;;;;;;;;;;;;;;;17.76;69.80;99717.05;2372358;74;50742;-74
2023/01/13 05:07:30;;;;;;;;;;;;;;;17.73;70.00;99711.59;2329210;75;51407;-74
2023/01/13 05:10:32;;;;;;;;;;;;;;;17.74;69.96;99727.12;2333832;75;50247;-75
2023/01/13 05:16:59;;;;;;;;;;;;;;;17.73;70.02;99726.81;2359348;74;22351;-75
2023/01/13 05:20:01;;;;;;;;;;;;;;;17.73;69.97;99724.96;2331825;76;50360;-73
2023/01/13 05:26:22;;;;;;;;;;;;;;;17.73;70.01;99733.51;2334002;75;22440;-73
2023/01/13 05:29:24;;;;;;;;;;;;;;;17.71;70.12;99726.19;2369271;75;50407;-72
2023/01/13 05:32:30;;;;;;;;;;;;;;;17.73;69.79;99722.80;2340870;75;51137;-73
2023/01/13 05:35:29;;;;;;;;;;;;;;;17.76;69.56;99725.08;2333334;75;22443;-72
2023/01/13 05:38:30;;;;;;;;;;;;;;;17.73;69.47;99722.28;2329799;75;51257;-72
2023/01/13 05:44:51;;;;;;;;;;;;;;;17.70;69.57;99736.56;2327724;75;21802;-74
2023/01/13 05:47:53;;;;;;;;;;;;;;;17.70;70.26;99725.85;2344177;75;50176;-72
2023/01/13 05:50:54;;;;;;;;;;;;;;;17.71;70.06;99718.16;2307882;76;51117;-73
2023/01/13 05:53:58;;;;;;;;;;;;;;;17.74;69.39;99723.92;2331763;75;50383;-74
2023/01/13 05:56:59;;;;;;;;;;;;;;;17.74;69.60;99721.77;2332088;75;50632;-72
2023/01/13 06:00:01;;;;;;;;;;;;;;;17.71;69.26;99728.86;2333811;75;51317;-72
2023/01/13 06:03:02;;;;;;;;;;;;;;;17.70;69.49;99733.39;2333618;75;50166;-72
2023/01/13 06:06:04;;;;;;;;;;;;;;;17.71;69.45;99740.91;2325446;75;50219;-73
2023/01/13 06:09:06;;;;;;;;;;;;;;;17.72;69.35;99742.02;2322435;74;51508;-72
2023/01/13 06:12:09;;;;;;;;;;;;;;;17.71;69.34;99733.70;2320747;76;51428;-72
2023/01/13 06:15:11;;;;;;;;;;;;;;;17.68;69.30;99738.62;2269263;77;51104;-72
2023/01/13 06:18:12;;;;;;;;;;;;;;;17.68;69.38;99742.13;2348903;75;50114;-73
2023/01/13 06:21:14;;;;;;;;;;;;;;;17.68;69.88;99744.80;2374733;74;52186;-74
2023/01/13 06:24:15;;;;;;;;;;;;;;;17.67;70.61;99743.13;2374195;74;50197;-72
2023/01/13 06:27:17;;;;;;;;;;;;;;;17.68;70.65;99756.84;2347372;75;51155;-73
2023/01/13 06:30:19;;;;;;;;;;;;;;;17.72;70.23;99758.08;2372314;73;50455;-73
2023/01/13 06:33:22;;;;;;;;;;;;;;;17.76;70.26;99758.52;2374712;74;51538;-71
2023/01/13 06:36:25;;;;;;;;;;;;;;;17.77;70.34;99757.48;2356205;74;50658;-72
2023/01/13 06:39:29;;;;;;;;;;;;;;;17.75;70.24;99757.70;2365819;74;52378;-71
2023/01/13 06:45:50;;;;;;;;;;;;;;;17.73;69.98;99757.59;2340415;74;22973;-81
2023/01/13 06:48:52;;;;;;;;;;;;;;;17.71;69.95;99759.63;2330095;75;51597;-74
2023/01/13 06:51:53;;;;;;;;;;;;;;;17.70;69.90;99757.47;2335208;75;52518;-75
2023/01/13 06:54:57;;;;;;;;;;;;;;;17.69;69.90;99735.73;2347349;75;50225;-74
2023/01/13 06:57:58;;;;;;;;;;;;;;;17.68;69.86;99703.33;2291591;76;50422;-74
2023/01/13 07:01:00;;;;;;;;;;;;;;;17.70;69.78;99728.53;2295952;75;53548;-75
2023/01/13 07:04:02;;;;;;;;;;;;;;;17.72;69.64;99745.22;2347495;74;52501;-75
2023/01/13 07:07:03;;;;;;;;;;;;;;;17.71;69.65;99752.94;2369552;74;50609;-76
2023/01/13 07:10:07;;;;;;;;;;;;;;;17.72;69.54;99750.56;2333919;75;50686;-75
2023/01/13 07:16:28;;;;;;;;;;;;;;;17.70;69.50;99741.91;2335340;74;22475;-75
2023/01/13 07:19:29;;;;;;;;;;;;;;;17.69;69.46;99754.47;2332007;76;51456;-75
2023/01/13 07:22:31;;;;;;;;;;;;;;;17.70;69.40;99761.97;2333460;76;51632;-75
2023/01/13 07:25:32;;;;;;;;;;;;;;;17.68;69.35;99738.62;2333764;75;52207;-75
2023/01/13 07:28:34;;;;;;;;;;;;;;;17.68;69.25;99719.91;2315869;75;52332;-75
2023/01/13 07:31:35;;;;;;;;;;;;;;;17.63;69.28;99721.83;2372301;75;51467;-76
2023/01/13 07:34:37;;;;;;;;;;;;;;;17.60;69.38;99728.92;2368540;74;51561;-74
2023/01/13 07:37:39;;;;;;;;;;;;;;;17.60;69.43;99746.31;2358118;74;51267;-75
2023/01/13 07:40:40;;;;;;;;;;;;;;;17.61;69.24;99709.98;2340548;75;52491;-75
2023/01/13 07:43:42;;;;;;;;;;;;;;;17.67;69.09;99754.34;2352293;75;50652;-76
2023/01/13 07:46:43;;;;;;;;;;;;;;;17.68;69.02;99749.33;2374468;74;51487;-75
2023/01/13 07:49:45;;;;;;;;;;;;;;;17.69;69.03;99732.24;2372338;75;51467;-75
2023/01/13 07:52:47;;;;;;;;;;;;;;;17.69;69.07;99754.98;2346814;75;51173;-75
2023/01/13 07:55:48;;;;;;;;;;;;;;;17.68;69.01;99760.85;2327796;73;50208;-74
2023/01/13 07:58:51;;;;;;;;;;;;;;;17.70;68.83;99768.17;2292557;77;50201;-75
2023/01/13 08:01:53;;;;;;;;;;;;;;;17.69;68.90;99765.16;2292480;77;51580;-76
2023/01/13 08:04:55;;;;;;;;;;;;;;;17.71;68.87;99770.33;2300902;74;51621;-75
2023/01/13 08:07:56;;;;;;;;;;;;;;;17.66;68.90;99758.88;2353999;74;51579;-75
2023/01/13 08:10:59;;;;;;;;;;;;;;;17.69;68.76;99777.72;2338346;74;50332;-76
2023/01/13 08:14:01;;;;;;;;;;;;;;;17.71;68.71;99801.09;2362788;74;51445;-75
2023/01/13 08:17:02;;;;;;;;;;;;;;;17.68;68.71;99802.84;2347566;74;50643;-75
2023/01/13 08:20:04;;;;;;;;;;;;;;;17.69;68.71;99801.80;2354470;73;50099;-74
2023/01/13 08:23:06;;;;;;;;;;;;;;;17.69;68.70;99805.81;2396906;74;51514;-73
2023/01/13 08:26:09;;;;;;;;;;;;;;;17.68;68.61;99805.00;2384733;74;51702;-73
2023/01/13 08:29:10;;;;;;;;;;;;;;;17.64;68.87;99813.91;2325248;76;51445;-74
2023/01/13 08:32:12;;;;;;;;;;;;;;;17.66;68.72;99815.58;2299109;76;51150;-74
2023/01/13 08:35:14;;;;;;;;;;;;;;;17.66;68.63;99824.94;2324065;74;50460;-75
2023/01/13 08:38:15;;;;;;;;;;;;;;;17.64;68.60;99815.25;2353375;74;50712;-75
2023/01/13 08:41:53;;;;;;;;;;;;;;;17.63;68.51;99792.20;2377051;74;50573;-75
2023/01/13 08:44:20;;;;;;;;;;;;;;;17.65;68.45;99797.37;2369993;73;22330;-75
2023/01/13 08:47:22;;;;;;;;;;;;;;;17.66;68.48;99799.53;2371849;74;51479;-75
2023/01/13 08:50:24;;;;;;;;;;;;;;;17.68;68.35;99793.47;2367422;74;51603;-75
2023/01/13 08:53:25;;;;;;;;;;;;;;;17.67;68.32;99792.63;2367248;75;50765;-75
2023/01/13 08:56:28;;;;;;;;;;;;;;;17.66;68.38;99816.40;2340345;75;50792;-75
2023/01/13 08:59:29;;;;;;;;;;;;;;;17.67;68.36;99840.78;2349987;75;51438;-76
2023/01/13 09:02:31;;;;;;;;;;;;;;;17.68;68.34;99846.98;2285148;77;51437;-74
2023/01/13 09:05:33;;;;;;;;;;;;;;;17.66;68.32;99839.14;2325865;74;50283;-75
2023/01/13 09:08:34;;;;;;;;;;;;;;;17.64;68.36;99841.18;2316355;75;51855;-76
2023/01/13 09:14:57;;;;;;;;;;;;;;;17.62;68.32;99806.62;2372512;75;24357;-75
2023/01/13 09:17:59;;;;;;;;;;;;;;;17.61;68.29;99718.52;2374408;74;51900;-75
2023/01/13 09:21:00;;;;;;;;;;;;;;;17.59;68.37;99678.59;2348354;75;52392;-75
2023/01/13 09:24:02;;;;;;;;;;;;;;;17.59;68.35;99752.15;2331497;76;51451;-75
2023/01/13 09:27:04;;;;;;;;;;;;;;;17.67;68.18;99775.75;2333605;76;51508;-75
2023/01/13 09:30:05;;;;;;;;;;;;;;;17.66;68.14;99820.93;2331811;75;52016;-75
2023/01/13 09:36:27;;;;;;;;;;;;;;;17.67;68.10;99821.23;2353221;75;22318;-75
2023/01/13 09:39:28;;;;;;;;;;;;;;;17.67;68.06;99813.20;2327672;74;50264;-76
2023/01/13 09:46:05;;;;;;;;;;;;;;;17.67;68.05;99786.45;2310970;75;22535;-76
2023/01/13 09:49:08;;;;;;;;;;;;;;;17.61;68.16;99788.08;2372096;75;51536;-76
2023/01/13 09:52:12;;;;;;;;;;;;;;;17.59;68.23;99785.59;2371896;75;50368;-75
2023/01/13 09:55:29;;;;;;;;;;;;;;;17.60;68.29;99797.14;2331272;75;51510;-76
2023/01/13 09:58:30;;;;;;;;;;;;;;;17.59;68.31;99812.34;2326932;74;53087;-76
2023/01/13 10:01:36;;;;;;;;;;;;;;;17.57;68.37;99805.05;2331735;75;50363;-76
2023/01/13 10:04:38;;;;;;;;;;;;;;;17.58;68.30;99814.70;2349617;75;50371;-76
2023/01/13 10:07:41;;;;;;;;;;;;;;;17.60;68.16;99827.38;2362681;74;50597;-77
2023/01/13 10:10:44;;;;;;;;;;;;;;;17.64;67.97;99815.25;2377540;73;51378;-77
2023/01/13 10:13:46;;;;;;;;;;;;;;;17.63;67.99;99820.30;2373454;74;50163;-77
2023/01/13 10:16:49;;;;;;;;;;;;;;;17.64;67.98;99832.63;2355466;75;50549;-77
2023/01/13 10:20:05;;;;;;;;;;;;;;;17.62;67.97;99824.00;2332223;75;50771;-76
2023/01/13 10:23:14;;;;;;;;;;;;;;;17.60;68.07;99827.38;2311556;75;51183;-77
2023/01/13 10:26:33;;;;;;;;;;;;;;;17.56;68.19;99824.77;2338055;75;51546;-77
2023/01/13 10:29:34;;;;;;;;;;;;;;;17.54;68.27;99830.83;2319325;75;51578;-77
2023/01/13 10:32:36;;;;;;;;;;;;;;;17.58;68.26;99831.27;2331360;76;50601;-77
2023/01/13 10:35:56;;;;;;;;;;;;;;;17.57;68.28;99825.59;2341477;74;50811;-77
2023/01/13 10:38:59;;;;;;;;;;;;;;;17.55;68.30;99828.48;2391137;74;50104;-77
2023/01/13 10:42:02;;;;;;;;;;;;;;;17.56;68.24;99823.44;2349030;74;51436;-77
2023/01/13 10:45:04;;;;;;;;;;;;;;;17.54;68.24;99822.80;2343452;75;50180;-77
2023/01/13 10:48:07;;;;;;;;;;;;;;;17.58;68.09;99824.07;2347041;75;49483;-77
2023/01/13 10:51:13;;;;;;;;;;;;;;;17.61;68.00;99825.53;2347213;75;51683;-77
2023/01/13 10:54:19;;;;;;;;;;;;;;;17.62;67.91;99816.47;2371948;75;51406;-77
2023/01/13 10:57:21;;;;;;;;;;;;;;;17.59;67.99;99821.70;2333158;75;50271;-76
2023/01/13 11:00:29;;;;;;;;;;;;;;;17.56;68.07;99812.73;2307528;76;52379;-77
2023/01/13 11:03:35;;;;;;;;;;;;;;;17.54;68.17;99821.46;2331509;76;51607;-77
2023/01/13 11:06:37;;;;;;;;;;;;;;;17.57;68.15;99825.11;2343374;74;50258;-77
2023/01/13 11:09:38;;;;;;;;;;;;;;;17.59;68.10;99819.02;2347637;74;49866;-77
2023/01/13 11:12:47;;;;;;;;;;;;;;;17.62;68.01;99820.48;2337292;74;51164;-77
2023/01/13 11:16:00;;;;;;;;;;;;;;;17.60;68.02;99827.38;2395934;74;51572;-78
2023/01/13 11:19:11;;;;;;;;;;;;;;;17.57;68.12;99823.77;2378393;74;50706;-77
2023/01/13 11:22:14;;;;;;;;;;;;;;;17.55;68.15;99827.14;2328499;74;51438;-77
2023/01/13 11:25:17;;;;;;;;;;;;;;;17.56;68.11;99823.44;2294720;76;52702;-76
2023/01/13 11:28:29;;;;;;;;;;;;;;;17.57;67.96;99829.12;2324297;75;51399;-77
2023/01/13 11:31:38;;;;;;;;;;;;;;;17.59;67.83;99823.55;2331844;75;51476;-76
2023/01/13 11:34:40;;;;;;;;;;;;;;;17.56;67.89;99821.28;2321194;75;51518;-76
2023/01/13 11:37:42;;;;;;;;;;;;;;;17.62;67.96;99822.67;2349809;74;51182;-76
2023/01/13 11:40:45;;;;;;;;;;;;;;;17.71;67.90;99822.50;2366471;74;50603;-76
2023/01/13 11:43:48;;;;;;;;;;;;;;;17.74;68.05;99820.25;2343779;75;50142;-76
2023/01/13 11:46:50;;;;;;;;;;;;;;;17.79;67.90;99830.36;2331993;76;50312;-76
2023/01/13 11:49:51;;;;;;;;;;;;;;;17.83;67.85;99824.97;2339800;75;52367;-75
2023/01/13 11:53:07;;;;;;;;;;;;;;;17.87;67.73;99832.91;2344754;75;50225;-76
2023/01/13 11:56:13;;;;;;;;;;;;;;;17.89;67.57;99822.02;2331853;75;50755;-75
2023/01/13 11:59:22;;;;;;;;;;;;;;;17.91;67.41;99819.45;2332118;75;51424;-76
2023/01/13 12:02:43;;;;;;;;;;;;;;;17.92;67.35;99818.41;2307578;76;51335;-77
2023/01/13 12:06:03;;;;;;;;;;;;;;;17.95;67.23;99820.69;2346036;75;51488;-77
2023/01/13 12:09:22;;;;;;;;;;;;;;;17.95;67.21;99831.39;2332345;76;51445;-78
2023/01/13 12:12:26;;;;;;;;;;;;;;;17.96;67.16;99817.00;2332116;75;51514;-77
2023/01/13 12:15:29;;;;;;;;;;;;;;;17.98;67.05;99827.00;2307780;75;51757;-76
2023/01/13 12:18:36;;;;;;;;;;;;;;;17.99;66.94;99833.17;2332132;73;50006;-78
2023/01/13 12:21:55;;;;;;;;;;;;;;;17.98;66.97;99828.83;2338291;75;51789;-75
2023/01/13 12:24:59;;;;;;;;;;;;;;;17.98;66.95;99826.16;2332102;76;50293;-78
2023/01/13 12:28:02;;;;;;;;;;;;;;;18.00;66.89;99828.95;2307837;76;50055;-77
2023/01/13 12:31:03;;;;;;;;;;;;;;;18.01;66.73;99826.60;2321074;75;52425;-77
2023/01/13 12:34:22;;;;;;;;;;;;;;;18.02;66.70;99834.11;2372287;75;50641;-77
2023/01/13 12:37:28;;;;;;;;;;;;;;;18.02;66.68;99829.58;2337339;74;51399;-77
2023/01/13 12:40:37;;;;;;;;;;;;;;;18.01;66.61;99837.31;2305042;75;51756;-77
2023/01/13 12:47:00;;;;;;;;;;;;;;;18.03;66.50;99836.61;2359664;75;22333;-74
2023/01/13 12:50:20;;;;;;;;;;;;;;;18.03;66.42;99845.97;2372204;74;51530;-76
2023/01/13 12:53:26;;;;;;;;;;;;;;;18.04;66.43;99843.59;2346615;75;50986;-78
2023/01/13 12:56:41;;;;;;;;;;;;;;;18.03;66.41;99850.48;2357342;74;50595;-76
2023/01/13 12:59:47;;;;;;;;;;;;;;;18.02;66.49;99856.34;2343857;75;50657;-76
2023/01/13 13:02:51;;;;;;;;;;;;;;;18.02;66.32;99846.98;2353070;73;22306;-76
2023/01/13 13:05:57;;;;;;;;;;;;;;;18.03;66.34;99858.02;2341108;74;52461;-76
2023/01/13 13:09:02;;;;;;;;;;;;;;;18.03;66.29;99853.16;2340732;73;51463;-76
2023/01/13 13:15:42;;;;;;;;;;;;;;;18.04;66.28;99854.30;2366151;74;22342;-77
2023/01/13 13:18:44;;;;;;;;;;;;;;;18.06;66.17;99845.57;2292713;76;49204;-76
2023/01/13 13:22:04;;;;;;;;;;;;;;;18.05;66.20;99852.45;2267636;77;50355;-76
2023/01/13 13:25:07;;;;;;;;;;;;;;;18.03;66.20;99851.33;2311016;77;50356;-76
2023/01/13 13:28:11;;;;;;;;;;;;;;;18.02;66.07;99855.01;2344408;73;51527;-75
2023/01/13 13:31:17;;;;;;;;;;;;;;;17.98;66.06;99865.81;2372098;75;51494;-75
2023/01/13 13:34:23;;;;;;;;;;;;;;;17.96;66.11;99857.16;2349161;75;51496;-75
2023/01/13 13:46:45;;;;;;;;;;;;;;;17.94;66.13;99863.20;2356076;75;51499;-74
2023/01/13 13:47:21;;;;;;;;;;;;;;;17.89;66.36;99871.00;2317674;75;22300;-75
2023/01/13 13:50:23;;;;;;;;;;;;;;;17.87;66.16;99874.38;2292683;77;50189;-75
2023/01/13 13:53:27;;;;;;;;;;;;;;;17.84;66.20;99876.94;2320776;75;51431;-74
2023/01/13 13:56:28;;;;;;;;;;;;;;;17.82;66.23;99872.81;2300471;75;51472;-75
2023/01/13 13:59:32;;;;;;;;;;;;;;;17.81;66.21;99874.67;2332245;75;50210;-75
2023/01/13 14:02:34;;;;;;;;;;;;;;;17.80;66.21;99877.52;2332277;75;22304;-74
2023/01/13 14:05:36;;;;;;;;;;;;;;;17.80;66.25;99872.17;2334787;74;50289;-75
2023/01/13 14:08:38;;;;;;;;;;;;;;;17.80;66.33;99861.47;2328647;75;51237;-75
2023/01/13 14:11:40;;;;;;;;;;;;;;;17.77;66.40;99867.19;2332103;76;51414;-75
2023/01/13 14:14:44;;;;;;;;;;;;;;;17.76;66.44;99866.89;2356257;75;50703;-76
2023/01/13 14:17:46;;;;;;;;;;;;;;;17.76;66.48;99871.72;2369550;75;50775;-76
2023/01/13 14:20:55;;;;;;;;;;;;;;;17.75;66.48;99877.25;2338442;75;52622;-76
2023/01/13 14:23:57;;;;;;;;;;;;;;;17.70;66.45;99877.87;2332599;75;50734;-76
2023/01/13 14:27:15;;;;;;;;;;;;;;;17.73;66.51;99884.67;2332043;76;51489;-75
2023/01/13 14:30:17;;;;;;;;;;;;;;;17.76;66.38;99886.95;2334194;75;50283;-76
2023/01/13 14:33:20;;;;;;;;;;;;;;;17.77;66.32;99888.08;2314825;75;49743;-76
2023/01/13 14:36:26;;;;;;;;;;;;;;;17.81;66.16;99889.91;2361446;73;50400;-75
2023/01/13 14:39:38;;;;;;;;;;;;;;;17.77;66.16;99892.09;2374156;73;51484;-74
2023/01/13 14:42:39;;;;;;;;;;;;;;;17.75;66.11;99892.83;2377522;74;53701;-76
2023/01/13 14:45:42;;;;;;;;;;;;;;;17.72;66.14;99885.68;2340512;75;51074;-76
2023/01/13 14:48:46;;;;;;;;;;;;;;;17.71;66.16;99882.70;2360470;73;50214;-76
2023/01/13 14:51:47;;;;;;;;;;;;;;;17.70;66.21;99899.76;2391713;74;50657;-76
2023/01/13 14:54:50;;;;;;;;;;;;;;;17.67;66.33;99890.80;2372167;75;51258;-75
2023/01/13 14:57:51;;;;;;;;;;;;;;;17.63;66.40;99887.69;2303975;76;51206;-75
2023/01/13 15:00:54;;;;;;;;;;;;;;;17.66;66.43;99888.63;2364079;75;51510;-76
2023/01/13 15:03:58;;;;;;;;;;;;;;;17.72;66.30;99889.69;2373267;73;51473;-76
2023/01/13 15:06:59;;;;;;;;;;;;;;;17.80;66.12;99889.56;2356536;74;51447;-75
2023/01/13 15:10:01;;;;;;;;;;;;;;;17.83;65.94;99899.91;2310524;75;51109;-76
2023/01/13 15:13:03;;;;;;;;;;;;;;;17.87;65.76;99908.36;2360332;75;51453;-75
2023/01/13 15:16:05;;;;;;;;;;;;;;;17.85;65.75;99907.20;2372445;75;50412;-76
2023/01/13 15:19:08;;;;;;;;;;;;;;;17.81;65.79;99909.97;2374667;74;50084;-76
2023/01/13 15:22:10;;;;;;;;;;;;;;;17.79;65.81;99903.95;2346953;75;51700;-74
2023/01/13 15:25:11;;;;;;;;;;;;;;;17.74;65.90;99901.86;2338872;74;51415;-74
2023/01/13 15:28:17;;;;;;;;;;;;;;;17.70;65.98;99909.97;2292764;76;51397;-74
2023/01/13 15:31:19;;;;;;;;;;;;;;;17.67;66.14;99900.16;2316588;75;50736;-74
2023/01/13 15:34:21;;;;;;;;;;;;;;;17.63;66.16;99908.58;2307439;76;52239;-74
2023/01/13 15:37:24;;;;;;;;;;;;;;;17.67;66.16;99912.19;2379909;73;51471;-74
2023/01/13 15:40:27;;;;;;;;;;;;;;;17.71;66.13;99917.48;2320522;74;49968;-74
2023/01/13 15:46:49;;;;;;;;;;;;;;;17.88;65.64;99924.23;2332285;76;22333;-74
2023/01/13 15:49:50;;;;;;;;;;;;;;;17.93;65.45;99933.83;2331985;76;50760;-75
2023/01/13 15:52:52;;;;;;;;;;;;;;;17.91;65.40;99923.01;2363205;75;51390;-75
2023/01/13 15:55:55;;;;;;;;;;;;;;;17.89;65.63;99929.88;2372450;75;51340;-75
2023/01/13 15:58:57;;;;;;;;;;;;;;;17.92;65.78;99934.02;2331729;75;52350;-75
2023/01/13 16:01:58;;;;;;;;;;;;;;;17.91;65.67;99938.55;2333253;75;50371;-75
2023/01/13 16:05:00;;;;;;;;;;;;;;;17.86;65.98;99940.17;2333303;75;50041;-74
2023/01/13 16:08:01;;;;;;;;;;;;;;;17.84;66.02;99940.34;2338092;74;50160;-74
2023/01/13 16:11:03;;;;;;;;;;;;;;;17.82;66.00;99942.38;2302314;75;51479;-73
2023/01/13 16:14:05;;;;;;;;;;;;;;;17.78;66.12;99945.95;2328432;74;49802;-75
2023/01/13 16:17:14;;;;;;;;;;;;;;;17.81;66.07;99958.14;2328302;75;50115;-74
2023/01/13 16:20:16;;;;;;;;;;;;;;;17.83;65.98;99953.42;2340999;74;51530;-74
2023/01/13 16:23:17;;;;;;;;;;;;;;;17.84;65.89;99955.89;2359902;73;51499;-74
2023/01/13 16:26:20;;;;;;;;;;;;;;;17.80;65.98;99957.80;2356015;75;51498;-74
2023/01/13 16:29:22;;;;;;;;;;;;;;;17.76;66.03;99956.52;2354876;75;51553;-74
2023/01/13 16:32:23;;;;;;;;;;;;;;;17.75;66.10;99973.58;2321473;75;51555;-74
2023/01/13 16:35:26;;;;;;;;;;;;;;;17.70;66.19;99973.34;2319901;74;50624;-74
2023/01/13 16:38:27;;;;;;;;;;;;;;;17.70;66.29;99972.00;2367948;74;51703;-74
2023/01/13 16:41:29;;;;;;;;;;;;;;;17.67;66.40;99982.58;2333019;75;51185;-74
2023/01/13 16:44:30;;;;;;;;;;;;;;;17.63;66.40;99975.46;2322541;75;51544;-74
2023/01/13 16:47:32;;;;;;;;;;;;;;;17.67;66.33;99985.25;2323266;74;51649;-74
2023/01/13 16:50:40;;;;;;;;;;;;;;;17.73;66.17;99984.50;2372433;75;51416;-74
2023/01/13 16:53:42;;;;;;;;;;;;;;;17.86;65.82;99995.84;2369605;75;51466;-74